Time;durP1;ratioP1;P1;durP2;ratioP2;P2;SDS_P1;SDS_P2;PMS_P1;PMS_P2;Temp;Humidity;BMP_temperature;BMP_pressure;BME280_temperature;BME280_humidity;BME280_pressure;Samples;Min_cycle;Max_cycle;Signal;HPM_P1;HPM_P2
2022/11/04 00:00:41;;;;;;;10.40;4.32;;;;;;;6.54;85.38;100544.50;2043412;28;20287;-73
2022/11/04 00:01:46;;;;;;;11.95;5.30;;;;;;;6.55;85.63;100540.75;2057936;28;20285;-71
2022/11/04 00:02:49;;;;;;;17.33;4.70;;;;;;;6.56;85.61;100530.88;2057125;28;20302;-71
2022/11/04 00:03:52;;;;;;;13.82;5.18;;;;;;;6.56;85.25;100526.38;2049324;28;20295;-72
2022/11/04 00:04:54;;;;;;;15.65;5.68;;;;;;;6.56;85.04;100537.06;2057254;28;20619;-72
2022/11/04 00:06:00;;;;;;;19.58;5.25;;;;;;;6.55;85.42;100535.41;2064337;28;20300;-72
2022/11/04 00:08:22;;;;;;;26.25;5.60;;;;;;;6.54;85.11;100517.78;2057705;28;20297;-73
2022/11/04 00:08:31;;;;;;;12.43;5.03;;;;;;;6.55;85.24;100524.72;2059954;28;20289;-73
2022/11/04 00:09:36;;;;;;;13.77;4.32;;;;;;;6.54;85.33;100533.81;2056976;28;20638;-71
2022/11/04 00:12:23;;;;;;;15.13;4.88;;;;;;;6.57;85.80;100527.97;2059714;28;20301;-72
2022/11/04 00:13:28;;;;;;;15.50;5.03;;;;;;;6.60;85.85;100524.78;2059746;28;20301;-72
2022/11/04 00:14:34;;;;;;;11.15;4.45;;;;;;;6.62;85.64;100527.19;2049329;28;20775;-72
2022/11/04 00:18:21;;;;;;;13.40;4.32;;;;;;;6.61;85.79;100530.94;2059734;28;20781;-73
2022/11/04 00:19:25;;;;;;;16.40;4.85;;;;;;;6.61;85.78;100525.59;2057178;28;20310;-72
2022/11/04 00:28:42;;;;;;;15.40;4.35;;;;;;;6.63;85.64;100531.50;2060343;28;20302;-70
2022/11/04 00:29:45;;;;;;;19.45;4.85;;;;;;;6.59;86.10;100528.53;2048584;29;20299;-71
2022/11/04 00:30:48;;;;;;;17.20;4.57;;;;;;;6.57;85.56;100517.28;2041149;28;20295;-72
2022/11/04 00:33:26;;;;;;;15.82;5.10;;;;;;;6.56;85.76;100518.34;2061494;28;20293;-71
2022/11/04 00:34:28;;;;;;;14.48;5.00;;;;;;;6.55;86.16;100521.25;2072726;28;20296;-70
2022/11/04 00:35:31;;;;;;;14.25;4.68;;;;;;;6.55;86.16;100516.72;2064300;28;20289;-71
2022/11/04 00:36:33;;;;;;;15.85;4.35;;;;;;;6.54;86.21;100503.63;2065076;28;20293;-74
2022/11/04 00:37:39;;;;;;;10.15;3.72;;;;;;;6.53;86.14;100508.16;2056673;28;20305;-70
2022/11/04 00:38:42;;;;;;;20.80;6.38;;;;;;;6.52;85.89;100509.22;2049817;28;20306;-70
2022/11/04 00:39:47;;;;;;;15.52;4.70;;;;;;;6.54;86.09;100511.66;2064870;28;20296;-72
2022/11/04 00:40:53;;;;;;;12.30;4.22;;;;;;;6.54;85.91;100515.13;2059296;28;20714;-72
2022/11/04 00:41:58;;;;;;;16.83;4.55;;;;;;;6.54;86.39;100496.41;2057374;28;20297;-73
2022/11/04 00:43:00;;;;;;;15.98;5.30;;;;;;;6.54;85.96;100493.75;2064809;28;20300;-73
2022/11/04 00:44:05;;;;;;;16.42;5.10;;;;;;;6.53;86.06;100500.16;2056471;28;20290;-71
2022/11/04 00:45:07;;;;;;;18.95;5.65;;;;;;;6.53;85.99;100492.13;2057052;28;20294;-71
2022/11/04 00:46:12;;;;;;;13.73;5.43;;;;;;;6.54;86.11;100498.28;2040519;29;20625;-71
2022/11/04 00:47:14;;;;;;;14.32;4.20;;;;;;;6.54;86.35;100499.09;2042386;28;20307;-71
2022/11/04 00:48:19;;;;;;;16.08;5.32;;;;;;;6.54;85.87;100491.06;2064171;28;20285;-71
2022/11/04 00:49:24;;;;;;;11.18;4.40;;;;;;;6.55;86.17;100498.03;2064656;28;20292;-71
2022/11/04 00:50:27;;;;;;;15.57;4.97;;;;;;;6.55;85.82;100498.03;2057024;28;20734;-70
2022/11/04 00:51:32;;;;;;;20.08;5.40;;;;;;;6.56;86.01;100499.66;2056486;28;20297;-71
2022/11/04 00:52:36;;;;;;;13.57;5.22;;;;;;;6.55;85.75;100490.00;2049500;28;20275;-70
2022/11/04 00:53:39;;;;;;;14.10;4.95;;;;;;;6.53;85.80;100497.47;2056724;28;20282;-71
2022/11/04 00:54:44;;;;;;;16.63;4.18;;;;;;;6.52;85.91;100498.53;2056574;28;20301;-70
2022/11/04 00:55:48;;;;;;;14.35;5.07;;;;;;;6.54;86.00;100496.41;2055887;28;20423;-70
2022/11/04 00:56:52;;;;;;;21.63;4.88;;;;;;;6.53;86.41;100489.47;2064528;28;20289;-71
2022/11/04 00:57:56;;;;;;;17.08;4.75;;;;;;;6.55;85.89;100494.53;2064426;28;20290;-71
2022/11/04 00:59:00;;;;;;;16.05;5.28;;;;;;;6.52;85.78;100487.84;2049028;28;20291;-71
2022/11/04 01:00:06;;;;;;;15.77;4.80;;;;;;;6.52;85.86;100493.19;2056866;28;20289;-71
2022/11/04 01:01:16;;;;;;;14.57;4.68;;;;;;;6.49;86.16;100488.34;2048335;28;20295;-71
2022/11/04 01:02:22;;;;;;;18.50;4.82;;;;;;;6.50;86.31;100481.97;2051850;28;20274;-71
2022/11/04 01:03:26;;;;;;;16.73;4.95;;;;;;;6.47;86.23;100485.94;2064975;28;20285;-70
2022/11/04 01:04:32;;;;;;;19.98;4.72;;;;;;;6.46;86.06;100483.50;2064526;28;20293;-70
2022/11/04 01:05:37;;;;;;;15.48;4.93;;;;;;;6.48;85.99;100484.06;2056943;28;20282;-70
2022/11/04 01:06:40;;;;;;;12.10;4.55;;;;;;;6.48;86.02;100476.06;2056996;28;20793;-70
2022/11/04 01:07:42;;;;;;;9.65;3.50;;;;;;;6.51;86.45;100483.56;2056456;28;20294;-70
2022/11/04 01:08:45;;;;;;;16.83;5.03;;;;;;;6.49;86.00;100477.66;2064451;28;20286;-71
2022/11/04 01:09:51;;;;;;;15.75;4.93;;;;;;;6.52;86.26;100477.16;2048623;28;20308;-70
2022/11/04 01:10:54;;;;;;;14.68;5.10;;;;;;;6.50;85.97;100468.59;2048428;28;20774;-70
2022/11/04 01:11:57;;;;;;;12.32;4.20;;;;;;;6.52;86.21;100482.50;2048569;28;20306;-71
2022/11/04 01:12:59;;;;;;;9.75;4.22;;;;;;;6.50;86.18;100463.28;2048605;28;20647;-70
2022/11/04 01:14:04;;;;;;;15.98;4.60;;;;;;;6.51;86.17;100464.88;2056674;28;20317;-70
2022/11/04 01:15:11;;;;;;;12.50;4.43;;;;;;;6.53;86.32;100460.09;2065952;28;20305;-70
2022/11/04 01:16:15;;;;;;;14.40;4.88;;;;;;;6.50;86.00;100468.59;2073299;28;20304;-70
2022/11/04 01:17:17;;;;;;;11.48;4.95;;;;;;;6.49;86.35;100451.78;2072541;28;20771;-70
2022/11/04 01:18:19;;;;;;;13.05;5.13;;;;;;;6.52;86.35;100455.78;2072613;28;20687;-70
2022/11/04 01:19:28;;;;;;;12.48;4.50;;;;;;;6.55;86.17;100452.59;2064383;28;20304;-68
2022/11/04 01:20:32;;;;;;;17.48;4.85;;;;;;;6.58;86.36;100457.44;2065485;28;20305;-70
2022/11/04 01:21:34;;;;;;;12.52;4.82;;;;;;;6.61;86.51;100456.13;2072367;28;20309;-70
2022/11/04 01:22:40;;;;;;;17.88;4.72;;;;;;;6.62;86.12;100449.72;2073096;28;20285;-70
2022/11/04 01:23:43;;;;;;;12.80;4.25;;;;;;;6.67;86.42;100449.78;2064845;28;20361;-70
2022/11/04 01:24:46;;;;;;;12.93;4.55;;;;;;;6.69;86.00;100453.00;2072820;28;20304;-70
2022/11/04 01:25:50;;;;;;;14.32;4.95;;;;;;;6.70;85.83;100447.41;2077096;28;20310;-69
2022/11/04 01:26:58;;;;;;;14.43;4.55;;;;;;;6.72;86.18;100444.47;2072317;28;20664;-70
2022/11/04 01:28:01;;;;;;;12.63;4.28;;;;;;;6.74;85.80;100437.81;2070699;28;20296;-70
2022/11/04 01:29:04;;;;;;;15.85;4.65;;;;;;;6.77;86.17;100436.50;2064229;28;20371;-70
2022/11/04 01:30:10;;;;;;;17.48;4.88;;;;;;;6.78;85.96;100439.97;2064229;28;20300;-71
2022/11/04 01:31:15;;;;;;;11.80;4.65;;;;;;;6.79;85.72;100437.06;2048870;28;20287;-70
2022/11/04 01:32:18;;;;;;;13.65;4.22;;;;;;;6.82;86.15;100441.09;2040955;28;20660;-70
2022/11/04 01:33:20;;;;;;;14.13;4.50;;;;;;;6.83;85.59;100426.66;2040460;28;20719;-70
2022/11/04 01:34:23;;;;;;;15.98;5.50;;;;;;;6.83;85.92;100427.44;2056266;28;20293;-71
2022/11/04 01:35:27;;;;;;;8.77;3.80;;;;;;;6.86;85.60;100439.50;2064203;28;20300;-71
2022/11/04 01:36:35;;;;;;;19.50;5.45;;;;;;;6.86;85.75;100426.13;2057025;28;20301;-71
2022/11/04 01:37:37;;;;;;;14.43;5.13;;;;;;;6.89;85.83;100433.63;2056957;28;20774;-71
2022/11/04 01:38:41;;;;;;;20.35;5.43;;;;;;;6.93;85.86;100440.06;2064108;28;20293;-71
2022/11/04 01:39:43;;;;;;;14.88;5.10;;;;;;;6.94;85.80;100442.50;2064822;28;20677;-71
2022/11/04 01:40:45;;;;;;;13.13;5.25;;;;;;;6.95;85.83;100437.97;2064133;28;20301;-70
2022/11/04 01:41:49;;;;;;;10.85;4.68;;;;;;;6.95;85.34;100428.06;2054625;28;20305;-70
2022/11/04 01:42:52;;;;;;;9.57;4.75;;;;;;;6.99;85.67;100432.91;2064057;28;20289;-70
2022/11/04 01:43:57;;;;;;;14.80;4.80;;;;;;;7.00;86.03;100426.47;2056461;28;20285;-70
2022/11/04 01:45:16;;;;;;;13.30;4.78;;;;;;;7.01;86.06;100431.59;2064117;28;20345;-71
2022/11/04 01:46:27;;;;;;;13.18;4.95;;;;;;;7.03;85.69;100429.47;2064044;28;20308;-71
2022/11/04 01:47:44;;;;;;;16.90;4.95;;;;;;;7.07;86.14;100429.75;2064329;28;20289;-72
2022/11/04 01:48:46;;;;;;;14.02;4.78;;;;;;;7.07;85.60;100430.56;2064237;28;20278;-72
2022/11/04 01:50:03;;;;;;;18.48;5.03;;;;;;;7.08;86.05;100426.00;2063801;28;20292;-72
2022/11/04 01:51:06;;;;;;;18.00;4.32;;;;;;;7.10;85.64;100432.72;2058221;28;20794;-71
2022/11/04 01:52:13;;;;;;;13.13;4.50;;;;;;;7.09;85.70;100428.44;2048528;28;20286;-71
2022/11/04 01:53:21;;;;;;;17.90;4.80;;;;;;;7.08;85.56;100416.13;2049684;28;20403;-72
2022/11/04 01:54:28;;;;;;;14.85;4.55;;;;;;;7.06;85.69;100412.09;2049230;28;20282;-71
2022/11/04 01:55:35;;;;;;;15.73;4.78;;;;;;;7.06;86.03;100417.44;2049935;28;20774;-71
2022/11/04 01:56:39;;;;;;;12.32;4.85;;;;;;;7.04;86.00;100408.88;2043564;28;20298;-70
2022/11/04 01:57:46;;;;;;;17.52;5.45;;;;;;;7.00;86.01;100403.25;2033829;28;20625;-70
2022/11/04 01:58:52;;;;;;;16.50;5.10;;;;;;;7.01;86.06;100398.72;2049040;28;20305;-69
2022/11/04 02:00:00;;;;;;;15.73;4.50;;;;;;;7.03;86.24;100412.59;2057221;28;20285;-70
2022/11/04 02:01:03;;;;;;;20.58;5.15;;;;;;;7.05;86.28;100395.25;2064714;28;20304;-70
2022/11/04 02:02:05;;;;;;;14.63;4.65;;;;;;;7.06;86.73;100396.88;2056448;28;20301;-69
2022/11/04 02:03:19;;;;;;;14.63;4.72;;;;;;;7.08;86.53;100394.72;2032504;29;20315;-69
2022/11/04 02:04:26;;;;;;;12.43;4.82;;;;;;;7.12;86.89;100385.13;2043572;28;20306;-69
2022/11/04 02:05:29;;;;;;;16.85;4.72;;;;;;;7.13;86.80;100392.09;2049775;28;20827;-69
2022/11/04 02:06:32;;;;;;;13.85;4.50;;;;;;;7.15;86.62;100389.94;2056436;28;20669;-69
2022/11/04 02:07:40;;;;;;;13.70;5.43;;;;;;;7.19;86.77;100388.38;2056181;28;20305;-69
2022/11/04 02:08:46;;;;;;;12.90;4.15;;;;;;;7.23;86.58;100380.66;2056841;28;20312;-70
2022/11/04 02:09:52;;;;;;;14.90;4.75;;;;;;;7.28;86.76;100383.34;2063517;28;20285;-69
2022/11/04 02:10:58;;;;;;;16.48;5.40;;;;;;;7.30;86.58;100388.44;2056103;28;20034;-70
2022/11/04 02:13:27;;;;;;;13.75;4.65;;;;;;;7.23;86.73;100379.84;2053919;28;20288;-70
2022/11/04 02:14:30;;;;;;;14.10;4.13;;;;;;;7.24;86.81;100376.09;2064802;28;20344;-70
2022/11/04 02:15:49;;;;;;;12.13;4.13;;;;;;;7.24;86.82;100374.22;2055856;28;20294;-70
2022/11/04 02:17:02;;;;;;;12.70;3.60;;;;;;;7.28;86.81;100369.16;2052884;28;20627;-70
2022/11/04 02:18:43;;;;;;;12.88;4.57;;;;;;;7.30;86.68;100375.84;2047865;29;20543;-70
2022/11/04 02:20:13;;;;;;;12.95;4.15;;;;;;;7.34;86.91;100363.56;2058556;28;20641;-70
2022/11/04 02:22:05;;;;;;;13.75;3.97;;;;;;;7.35;86.46;100369.75;2059802;28;20293;-70
2022/11/04 02:23:42;;;;;;;10.38;3.72;;;;;;;7.34;86.57;100360.09;2046432;29;20302;-69
2022/11/04 02:25:06;;;;;;;11.95;3.22;;;;;;;7.31;86.42;100361.41;2052213;28;20302;-71
2022/11/04 02:26:42;;;;;;;12.65;3.72;;;;;;;7.28;86.03;100364.63;2055514;28;20282;-70
2022/11/04 02:28:13;;;;;;;12.20;3.40;;;;;;;7.27;86.61;100364.88;2050504;28;20624;-71
2022/11/04 02:29:17;;;;;;;7.57;3.40;;;;;;;7.23;86.62;100347.75;2051747;28;20697;-71
2022/11/04 02:30:25;;;;;;;11.85;3.80;;;;;;;7.24;86.67;100349.34;2040844;28;20046;-71
2022/11/04 02:31:35;;;;;;;10.13;4.22;;;;;;;7.24;86.96;100349.34;2057392;28;20285;-71
2022/11/04 02:32:49;;;;;;;11.27;3.65;;;;;;;7.24;86.93;100349.34;2048457;28;20295;-72
2022/11/04 02:34:00;;;;;;;9.88;3.13;;;;;;;7.25;87.14;100350.94;2043745;28;20294;-72
2022/11/04 02:35:21;;;;;;;15.27;3.95;;;;;;;7.26;87.17;100342.69;2051609;28;20294;-72
2022/11/04 02:36:45;;;;;;;14.15;3.63;;;;;;;7.27;87.33;100348.84;2059088;28;20273;-71
2022/11/04 02:37:58;;;;;;;10.75;3.03;;;;;;;7.29;87.54;100349.38;2052038;28;20293;-72
2022/11/04 02:39:17;;;;;;;16.20;3.78;;;;;;;7.30;87.41;100338.41;2052106;28;20287;-71
2022/11/04 02:40:33;;;;;;;9.85;2.67;;;;;;;7.32;87.43;100343.53;2059385;28;20290;-71
2022/11/04 02:41:52;;;;;;;10.43;3.15;;;;;;;7.32;87.44;100330.94;2055532;28;20302;-71
2022/11/04 02:43:19;;;;;;;9.15;3.10;;;;;;;7.36;87.21;100337.38;2044685;28;20279;-70
2022/11/04 02:44:30;;;;;;;7.78;2.95;;;;;;;7.38;87.60;100329.09;2062810;28;20041;-71
2022/11/04 02:45:43;;;;;;;7.95;3.00;;;;;;;7.37;87.38;100332.81;2055789;28;20282;-71
2022/11/04 02:47:01;;;;;;;10.93;3.03;;;;;;;7.37;87.37;100327.47;2057477;28;20300;-72
2022/11/04 02:48:17;;;;;;;11.13;3.45;;;;;;;7.37;87.37;100328.28;2050167;28;20286;-70
2022/11/04 02:49:34;;;;;;;9.43;3.08;;;;;;;7.40;87.23;100329.63;2041096;28;20295;-70
2022/11/04 02:50:50;;;;;;;5.72;2.83;;;;;;;7.42;87.03;100340.88;2051427;28;20294;-70
2022/11/04 02:52:03;;;;;;;12.73;3.10;;;;;;;7.42;87.11;100330.97;2057624;28;20042;-70
2022/11/04 02:53:20;;;;;;;11.07;3.05;;;;;;;7.43;87.12;100323.75;2065373;28;20745;-70
2022/11/04 02:54:41;;;;;;;8.90;3.38;;;;;;;7.45;87.32;100324.28;2056019;28;20313;-70
2022/11/04 02:55:46;;;;;;;9.52;3.00;;;;;;;7.44;87.31;100317.34;2058334;28;20038;-70
2022/11/04 02:56:52;;;;;;;14.13;3.60;;;;;;;7.47;87.39;100313.31;2055573;28;20329;-71
2022/11/04 02:58:01;;;;;;;11.43;3.45;;;;;;;7.49;87.48;100317.34;2056517;28;20731;-70
2022/11/04 02:59:25;;;;;;;12.52;3.53;;;;;;;7.51;87.24;100320.56;2063882;28;20286;-71
2022/11/04 03:00:35;;;;;;;9.82;3.15;;;;;;;7.53;87.08;100313.06;2058096;28;20312;-71
2022/11/04 03:01:45;;;;;;;14.18;2.85;;;;;;;7.55;86.77;100312.81;2048958;28;20484;-71
2022/11/04 03:02:54;;;;;;;10.00;3.55;;;;;;;7.57;86.90;100319.53;2050310;28;20287;-71
2022/11/04 03:04:02;;;;;;;11.18;2.85;;;;;;;7.57;86.57;100308.81;2047728;29;20683;-71
2022/11/04 03:05:08;;;;;;;10.30;2.72;;;;;;;7.59;86.74;100314.69;2050544;28;20672;-71
2022/11/04 03:06:13;;;;;;;8.52;3.05;;;;;;;7.61;86.54;100312.56;2055736;28;20383;-70
2022/11/04 03:07:23;;;;;;;12.02;3.38;;;;;;;7.62;86.40;100308.00;2056563;28;20297;-71
2022/11/04 03:08:40;;;;;;;9.27;3.88;;;;;;;7.63;86.30;100305.09;2064670;28;20301;-71
2022/11/04 03:09:51;;;;;;;9.68;3.42;;;;;;;7.67;86.38;100313.38;2063979;28;20304;-71
2022/11/04 03:11:00;;;;;;;9.10;2.22;;;;;;;7.69;86.11;100302.41;2056668;28;20294;-71
2022/11/04 03:12:24;;;;;;;8.38;3.00;;;;;;;7.72;86.16;100312.56;2047786;28;20310;-71
2022/11/04 03:13:35;;;;;;;11.27;3.45;;;;;;;7.68;85.93;100309.63;2050652;28;20305;-72
2022/11/04 03:14:47;;;;;;;8.30;2.58;;;;;;;7.72;86.05;100309.91;2050939;28;20287;-71
2022/11/04 03:16:01;;;;;;;8.07;3.22;;;;;;;7.74;85.79;100305.09;2064268;28;20289;-71
2022/11/04 03:17:10;;;;;;;9.38;3.08;;;;;;;7.77;86.09;100309.91;2064815;28;20074;-71
2022/11/04 03:18:35;;;;;;;13.20;3.83;;;;;;;7.77;86.13;100309.91;2049462;28;20287;-71
2022/11/04 03:19:59;;;;;;;8.40;2.75;;;;;;;7.78;85.82;100316.88;2046866;28;20285;-72
2022/11/04 03:21:05;;;;;;;9.77;2.90;;;;;;;7.79;85.55;100297.09;2054809;28;20611;-72
2022/11/04 03:22:06;;;;;;;8.07;3.00;;;;;;;7.81;85.51;100301.06;2057392;28;20293;-71
2022/11/04 03:23:10;;;;;;;8.07;2.28;;;;;;;7.83;85.47;100303.50;2064656;28;20302;-71
2022/11/04 03:24:12;;;;;;;9.82;2.95;;;;;;;7.85;85.15;100304.06;2041194;29;20303;-72
2022/11/04 03:25:22;;;;;;;10.05;2.60;;;;;;;7.80;85.10;100306.72;2050205;28;20278;-72
2022/11/04 03:26:39;;;;;;;12.77;3.03;;;;;;;7.79;84.95;100302.44;2064153;28;20789;-72
2022/11/04 03:28:01;;;;;;;5.00;2.28;;;;;;;7.80;85.11;100298.69;2049674;28;20295;-72
2022/11/04 03:29:08;;;;;;;8.75;3.00;;;;;;;7.82;85.13;100301.91;2062097;28;20765;-72
2022/11/04 03:30:15;;;;;;;9.00;2.90;;;;;;;7.80;84.84;100294.13;2056856;28;20294;-72
2022/11/04 03:31:27;;;;;;;12.90;3.60;;;;;;;7.80;84.90;100293.31;2058320;28;20286;-71
2022/11/04 03:33:03;;;;;;;9.40;2.55;;;;;;;7.84;84.95;100291.72;2049778;29;20978;-72
2022/11/04 03:34:08;;;;;;;11.80;2.90;;;;;;;7.85;84.98;100290.66;2038549;28;20295;-70
2022/11/04 03:35:15;;;;;;;6.95;2.42;;;;;;;7.84;84.68;100289.03;2050792;28;20346;-70
2022/11/04 03:36:18;;;;;;;10.10;2.78;;;;;;;7.83;84.82;100287.44;2065127;28;20285;-71
2022/11/04 03:37:23;;;;;;;12.70;3.10;;;;;;;7.83;84.82;100288.25;2056992;28;20286;-71
2022/11/04 03:38:26;;;;;;;10.60;3.10;;;;;;;7.83;85.13;100282.09;2057673;28;20293;-71
2022/11/04 03:39:34;;;;;;;10.10;2.70;;;;;;;7.84;84.71;100275.66;2065617;28;20292;-71
2022/11/04 03:40:38;;;;;;;15.07;2.95;;;;;;;7.87;84.84;100285.84;2065750;28;20296;-71
2022/11/04 03:41:50;;;;;;;7.20;3.00;;;;;;;7.89;84.50;100286.38;2048841;28;20628;-71
2022/11/04 03:42:57;;;;;;;6.07;2.17;;;;;;;7.87;84.50;100278.59;2036630;28;20780;-71
2022/11/04 03:43:59;;;;;;;8.95;3.15;;;;;;;7.87;84.30;100277.81;2042734;28;20291;-71
2022/11/04 03:45:02;;;;;;;12.45;3.22;;;;;;;7.88;84.59;100274.88;2057278;28;20281;-70
2022/11/04 03:46:05;;;;;;;7.57;2.58;;;;;;;7.89;84.71;100283.69;2066484;28;20289;-70
2022/11/04 03:47:07;;;;;;;10.45;2.63;;;;;;;7.91;84.53;100286.91;2066344;28;20284;-71
2022/11/04 03:48:12;;;;;;;8.98;3.28;;;;;;;7.92;84.52;100277.00;2050390;28;20299;-71
2022/11/04 03:49:16;;;;;;;10.55;3.40;;;;;;;7.90;84.83;100275.38;2051204;28;20309;-71
2022/11/04 03:50:48;;;;;;;14.07;3.05;;;;;;;7.90;84.73;100287.97;2058465;28;20297;-71
2022/11/04 03:51:51;;;;;;;12.32;3.22;;;;;;;7.92;84.82;100283.16;2061012;28;20289;-71
2022/11/04 03:52:53;;;;;;;13.38;3.65;;;;;;;7.86;85.03;100262.81;2042311;29;20519;-70
2022/11/04 03:53:58;;;;;;;7.32;2.88;;;;;;;7.88;85.38;100268.69;2042586;28;20665;-71
2022/11/04 03:55:03;;;;;;;7.93;3.30;;;;;;;7.87;85.41;100267.09;2066098;28;20301;-71
2022/11/04 03:56:08;;;;;;;12.85;3.22;;;;;;;7.84;85.05;100262.28;2049924;29;20295;-71
2022/11/04 03:57:31;;;;;;;15.55;3.63;;;;;;;7.86;85.34;100273.53;2042542;28;20283;-71
2022/11/04 03:59:05;;;;;;;8.52;3.15;;;;;;;7.87;85.53;100259.06;2060844;28;20301;-71
2022/11/04 04:00:10;;;;;;;11.23;2.95;;;;;;;7.85;85.22;100255.88;2058014;28;20312;-71
2022/11/04 04:01:23;;;;;;;11.65;3.38;;;;;;;7.86;85.51;100257.47;2057766;28;20294;-71
2022/11/04 04:02:49;;;;;;;8.45;3.33;;;;;;;7.88;85.37;100261.50;2049732;29;20770;-72
2022/11/04 04:04:17;;;;;;;10.45;2.80;;;;;;;7.88;85.69;100256.13;2043975;28;20294;-72
2022/11/04 04:05:29;;;;;;;7.55;3.40;;;;;;;7.91;85.68;100257.44;2058236;28;20301;-71
2022/11/04 04:06:37;;;;;;;11.70;3.90;;;;;;;7.92;85.73;100258.28;2057723;28;20290;-70
2022/11/04 04:07:43;;;;;;;12.18;2.97;;;;;;;7.95;85.61;100253.19;2051041;28;20295;-70
2022/11/04 04:08:55;;;;;;;10.48;3.45;;;;;;;7.96;85.53;100246.75;2059392;28;20444;-70
2022/11/04 04:11:49;;;;;;;10.80;2.72;;;;;;;7.97;85.14;100258.25;2059259;28;20297;-70
2022/11/04 04:12:56;;;;;;;6.30;2.55;;;;;;;8.00;85.39;100255.84;2056238;28;20308;-70
2022/11/04 04:14:03;;;;;;;11.25;3.22;;;;;;;7.98;85.00;100255.31;2051294;28;20299;-70
2022/11/04 04:15:16;;;;;;;9.48;3.25;;;;;;;8.00;85.04;100245.13;2059580;28;20286;-70
2022/11/04 04:16:37;;;;;;;10.50;3.30;;;;;;;7.99;85.09;100248.88;2059412;28;20038;-70
2022/11/04 04:17:45;;;;;;;8.00;2.95;;;;;;;7.99;85.38;100248.88;2054431;28;20283;-70
2022/11/04 04:18:54;;;;;;;7.85;3.47;;;;;;;7.98;85.04;100247.28;2065055;28;20282;-70
2022/11/04 04:20:18;;;;;;;11.18;3.13;;;;;;;7.98;85.05;100252.66;2049738;28;20294;-70
2022/11/04 04:21:25;;;;;;;12.23;2.97;;;;;;;7.98;85.04;100246.50;2048599;28;20780;-70
2022/11/04 04:22:36;;;;;;;8.93;3.40;;;;;;;8.00;85.00;100245.13;2050885;28;20723;-70
2022/11/04 04:27:56;;;;;;;4.88;2.33;;;;;;;8.07;84.67;100248.38;2058893;28;20774;-71
2022/11/04 04:29:05;;;;;;;7.75;2.83;;;;;;;8.07;85.04;100234.97;2050842;28;20391;-70
2022/11/04 04:30:17;;;;;;;9.13;3.20;;;;;;;8.09;84.52;100238.16;2057550;28;20308;-70
2022/11/04 04:32:50;;;;;;;11.95;2.85;;;;;;;8.09;84.02;100229.34;2060740;28;20298;-70
2022/11/04 04:33:57;;;;;;;10.35;3.28;;;;;;;8.06;84.47;100237.91;2057440;28;20314;-70
2022/11/04 04:36:26;;;;;;;6.93;2.42;;;;;;;8.04;84.10;100229.34;2073116;28;20299;-73
2022/11/04 04:37:30;;;;;;;6.68;2.97;;;;;;;8.02;84.21;100226.94;2070940;28;20288;-73
2022/11/04 04:45:43;;;;;;;7.75;3.33;;;;;;;8.09;84.74;100229.34;2060644;28;20291;-73
2022/11/04 04:46:53;;;;;;;11.55;3.15;;;;;;;8.05;84.69;100223.72;2065171;28;20518;-72
2022/11/04 04:47:59;;;;;;;9.75;3.42;;;;;;;8.03;84.20;100225.84;2072774;28;20293;-71
2022/11/04 04:49:08;;;;;;;8.23;3.05;;;;;;;8.07;84.70;100223.44;2072375;28;20292;-71
2022/11/04 04:50:13;;;;;;;9.23;2.78;;;;;;;8.08;84.51;100220.50;2061660;28;20651;-72
2022/11/04 04:51:16;;;;;;;6.55;3.28;;;;;;;8.11;84.29;100219.97;2056242;28;20525;-73
2022/11/04 04:52:25;;;;;;;11.85;3.22;;;;;;;8.12;84.69;100226.91;2047885;28;20294;-73
2022/11/04 04:53:28;;;;;;;11.63;3.03;;;;;;;8.13;84.89;100225.88;2055999;28;20286;-72
2022/11/04 04:54:31;;;;;;;9.45;3.05;;;;;;;8.12;84.24;100226.13;2071715;28;20293;-71
2022/11/04 04:55:35;;;;;;;7.10;2.70;;;;;;;8.10;84.74;100214.88;2072265;28;20296;-70
2022/11/04 04:56:40;;;;;;;7.40;2.80;;;;;;;8.12;84.59;100221.56;2071528;28;20282;-71
2022/11/04 04:57:42;;;;;;;8.73;3.08;;;;;;;8.15;84.84;100224.78;2062627;28;20296;-72
2022/11/04 04:58:48;;;;;;;7.47;3.55;;;;;;;8.17;84.80;100223.44;2046830;28;20866;-72
2022/11/04 04:59:50;;;;;;;8.00;2.88;;;;;;;8.19;84.35;100226.63;2040904;29;20764;-71
2022/11/04 05:00:55;;;;;;;5.90;2.63;;;;;;;8.18;84.36;100232.28;2048230;28;20309;-71
2022/11/04 05:02:00;;;;;;;12.07;3.63;;;;;;;8.19;84.46;100223.97;2064554;28;20293;-70
2022/11/04 05:03:04;;;;;;;9.55;3.00;;;;;;;8.22;84.13;100219.94;2061658;28;20715;-70
2022/11/04 05:04:11;;;;;;;8.77;2.75;;;;;;;8.24;84.29;100217.81;2034652;29;20283;-72
2022/11/04 05:05:17;;;;;;;5.45;2.40;;;;;;;8.24;84.17;100221.28;2035246;29;20926;-69
2022/11/04 05:06:20;;;;;;;10.32;2.95;;;;;;;8.26;83.98;100229.03;2047995;28;20645;-69
2022/11/04 05:07:25;;;;;;;11.85;3.88;;;;;;;8.26;84.14;100226.34;2054813;28;20781;-69
2022/11/04 05:08:30;;;;;;;8.25;3.10;;;;;;;8.28;84.32;100230.38;2058609;28;20293;-71
2022/11/04 05:09:33;;;;;;;11.13;3.45;;;;;;;8.28;83.73;100230.38;2073262;28;20280;-71
2022/11/04 05:10:36;;;;;;;8.07;2.58;;;;;;;8.29;84.04;100231.16;2073585;28;20285;-71
2022/11/04 05:11:38;;;;;;;16.27;3.50;;;;;;;8.27;83.78;100236.00;2057194;28;20635;-71
2022/11/04 05:14:04;;;;;;;5.47;2.83;;;;;;;8.28;84.09;100232.25;2059756;28;20290;-71
2022/11/04 05:15:09;;;;;;;14.40;3.33;;;;;;;8.30;83.67;100232.78;2058612;28;20305;-72
2022/11/04 05:16:12;;;;;;;12.40;3.25;;;;;;;8.32;84.05;100234.13;2072681;28;20293;-70
2022/11/04 05:17:14;;;;;;;8.27;3.15;;;;;;;8.33;83.73;100229.56;2073348;28;20756;-70
2022/11/04 05:18:18;;;;;;;9.98;3.20;;;;;;;8.34;83.59;100231.16;2071919;28;20293;-72
2022/11/04 05:19:24;;;;;;;6.75;2.85;;;;;;;8.34;83.83;100233.84;2071225;28;20609;-72
2022/11/04 05:20:32;;;;;;;9.77;3.55;;;;;;;8.34;83.77;100225.81;2055239;28;20302;-72
2022/11/04 05:21:35;;;;;;;5.97;2.78;;;;;;;8.38;83.78;100224.22;2050379;28;20282;-72
2022/11/04 05:22:40;;;;;;;11.20;3.45;;;;;;;8.40;83.40;100221.28;2063216;28;20309;-74
2022/11/04 05:23:46;;;;;;;8.00;2.85;;;;;;;8.39;83.29;100231.19;2071119;28;20704;-76
2022/11/04 05:24:53;;;;;;;11.55;3.25;;;;;;;8.37;83.67;100227.94;2062154;28;20308;-72
2022/11/04 05:25:58;;;;;;;13.45;2.97;;;;;;;8.34;83.27;100225.81;2056868;28;20301;-71
2022/11/04 05:27:05;;;;;;;7.07;3.17;;;;;;;8.34;83.52;100218.56;2056004;28;20805;-73
2022/11/04 05:28:09;;;;;;;11.30;3.28;;;;;;;8.35;83.43;100224.72;2047462;28;20313;-72
2022/11/04 05:29:11;;;;;;;11.20;2.90;;;;;;;8.36;83.12;100221.78;2055485;28;20290;-73
2022/11/04 05:30:14;;;;;;;9.35;3.17;;;;;;;8.38;83.59;100226.91;2039289;29;20295;-75
2022/11/04 05:31:16;;;;;;;8.07;3.20;;;;;;;8.39;83.77;100217.81;2039627;28;20294;-75
2022/11/04 05:32:18;;;;;;;10.98;3.38;;;;;;;8.38;83.53;100216.19;2055356;28;20349;-74
2022/11/04 05:33:22;;;;;;;8.05;3.13;;;;;;;8.39;83.81;100209.78;2055434;28;20294;-79
2022/11/04 05:34:24;;;;;;;9.23;3.17;;;;;;;8.38;83.44;100224.22;2055031;28;20317;-75
2022/11/04 05:35:29;;;;;;;6.78;2.85;;;;;;;8.37;83.49;100211.88;2048004;28;20306;-75
2022/11/04 05:36:35;;;;;;;11.05;3.67;;;;;;;8.38;83.59;100218.03;2054563;28;20392;-75
2022/11/04 05:37:38;;;;;;;9.43;3.42;;;;;;;8.38;83.43;100226.91;2063291;28;20297;-76
2022/11/04 05:38:41;;;;;;;9.38;3.38;;;;;;;8.35;83.28;100214.84;2039109;28;20302;-76
2022/11/04 05:39:43;;;;;;;7.45;3.13;;;;;;;8.37;83.38;100209.19;2047241;28;20833;-73
2022/11/04 05:40:45;;;;;;;9.80;3.33;;;;;;;8.37;83.84;100222.59;2055530;28;20310;-73
2022/11/04 05:41:51;;;;;;;9.57;3.20;;;;;;;8.35;83.83;100201.44;2070942;28;20291;-76
2022/11/04 05:42:58;;;;;;;13.88;3.67;;;;;;;8.38;83.56;100212.69;2062323;28;20301;-79
2022/11/04 05:44:01;;;;;;;7.28;2.78;;;;;;;8.39;83.48;100203.63;2054746;28;20297;-75
2022/11/04 05:45:05;;;;;;;9.50;3.17;;;;;;;8.39;83.36;100204.41;2047034;28;20952;-75
2022/11/04 05:46:08;;;;;;;15.52;3.42;;;;;;;8.35;83.83;100208.66;2047244;28;20955;-71
2022/11/04 05:47:11;;;;;;;11.15;3.70;;;;;;;8.36;83.60;100211.06;2046684;28;20301;-70
2022/11/04 05:48:13;;;;;;;10.95;3.83;;;;;;;8.38;83.58;100205.47;2047312;28;20293;-75
2022/11/04 05:49:19;;;;;;;10.63;3.40;;;;;;;8.41;83.53;100207.59;2047519;28;20325;-77
2022/11/04 05:50:22;;;;;;;11.07;3.10;;;;;;;8.39;83.45;100204.41;2047776;28;20302;-74